EST,Max TemperatureF,Mean TemperatureF,Min TemperatureF,Max Dew PointF,MeanDew PointF,Min DewpointF,Max Humidity, Mean Humidity, Min Humidity, Max Sea Level PressureIn, Mean Sea Level PressureIn, Min Sea Level PressureIn, Max VisibilityMiles, Mean VisibilityMiles, Min VisibilityMiles, Max Wind SpeedMPH, Mean Wind SpeedMPH, Max Gust SpeedMPH,PrecipitationIn, CloudCover, Events, WindDirDegrees
2012-11-1,80,69,59,60,56,51,90,66,39,30.06,30.01,29.94,10,10,10,17,9,24,0.00,1,,254
2012-11-2,77,67,57,57,48,41,84,55,30,30.12,30.07,30.03,10,10,10,10,6,,0.00,0,,285
2012-11-3,84,72,59,63,57,51,87,65,39,30.15,30.10,30.07,10,10,10,8,4,,0.00,0,,290
2012-11-4,81,70,59,61,58,55,90,67,42,30.14,30.08,30.01,10,10,7,7,2,,0.00,0,,250
2012-11-5,79,72,64,65,60,53,93,73,42,30.02,29.99,29.93,10,10,7,13,7,,0.00,2,,314
2012-11-6,77,70,61,60,56,52,87,68,52,29.98,29.89,29.82,10,10,7,13,4,21,0.01,2,Rain,292
2012-11-7,66,60,55,54,47,39,89,66,38,30.02,29.93,29.86,10,10,9,14,9,21,0.00,4,,300
2012-11-8,68,59,50,44,42,38,74,56,35,30.21,30.12,30.01,10,10,10,10,6,16,0.00,0,,358
2012-11-9,73,62,50,48,43,31,86,56,22,30.30,30.25,30.20,10,10,10,10,4,,0.00,0,,24
2012-11-10,75,64,53,56,50,45,78,58,44,30.35,30.30,30.26,10,10,10,14,6,16,0.00,3,,42
2012-11-11,80,70,60,62,58,54,87,71,43,30.33,30.28,30.26,10,10,10,18,5,23,0.00,4,,59
2012-11-12,79,70,62,65,62,61,94,80,56,30.28,30.23,30.19,10,10,8,15,5,17,0.00,4,,85
2012-11-13,80,72,64,65,62,56,93,75,43,30.21,30.16,30.12,10,10,9,10,3,,0.00,0,,37
2012-11-14,77,72,66,66,64,63,94,83,62,30.20,30.15,30.12,10,9,2,14,8,17,0.05,6,Rain,13
2012-11-15,66,63,60,64,60,56,97,89,82,30.18,30.14,30.09,10,7,2,12,6,,0.00,8,,357
2012-11-16,70,64,57,56,55,53,94,78,57,30.19,30.15,30.12,10,10,9,13,8,,0.00,7,,7
2012-11-17,77,68,60,61,59,57,90,79,54,30.19,30.15,30.11,10,10,8,16,8,23,0.00,6,,6
2012-11-18,71,64,57,60,56,53,87,75,59,30.22,30.17,30.14,10,10,9,20,11,25,0.00,6,,8
2012-11-19,59,57,55,53,52,51,88,83,78,30.19,30.15,30.10,10,10,6,12,8,18,0.00,7,,345
2012-11-20,72,64,55,55,54,49,90,73,53,30.10,30.06,30.02,10,10,10,15,8,20,0.00,3,,351
2012-11-21,73,64,55,52,48,42,87,63,33,30.11,30.06,30.02,10,10,9,15,8,21,0.00,0,,354
2012-11-22,70,61,50,49,39,27,77,51,22,30.21,30.14,30.09,10,10,10,18,9,28,0.00,0,,357
2012-11-23,72,59,46,46,38,29,77,49,21,30.23,30.16,30.11,10,10,10,9,4,,0.00,0,,327
2012-11-24,72,62,51,56,50,44,96,70,47,30.13,30.08,30.02,10,9,4,14,5,,0.00,0,,301
2012-11-25,70,58,46,46,38,28,80,52,21,30.20,30.15,30.11,10,10,10,6,3,,0.00,0,,348
2012-11-26,77,62,48,58,51,40,90,68,42,30.27,30.20,30.16,10,10,10,9,2,,0.00,1,,87
2012-11-27,78,66,55,62,58,55,100,82,50,30.22,30.17,30.12,10,7,0,12,1,,0.00,2,Fog,212
2012-11-28,66,60,55,59,55,52,90,82,66,30.30,30.24,30.14,10,10,9,13,6,17,0.00,4,,359
2012-11-29,75,64,53,56,53,49,94,73,44,30.31,30.28,30.25,10,10,8,17,7,23,0.00,2,,30
2012-11-30,75,65,55,57,54,51,90,70,45,30.30,30.25,30.19,10,10,10,17,5,20,0.00,2,,54